Argo Village, New York
Current Conditions -  °F | °C
As of 12:51 AM on Friday 19 Dec 2014 (Local Time) from KJFK Reporting Station
Broken Clouds Broken Clouds  
Wind Chill: -1°   Ceiling: 3100
Heat Index:   Visibility: 10mi
Dew Point: -4°   Wind: 14mph
Humidity: 57%   Direction: 310°NW
Pressure: 29.98"   Gusts: NA
Location:  40.7013°N, 73.7074°W
Report Text: KJFK 190551Z 31012KT 10SM BKN031 BKN250 04/M04 A2998 RMK AO2 SLP150 T00391039 10044 20033 56004 $
Loading
Personal Weather Stations






























Interactive Weather Map New forecast layout! Learn more

10-Day Weather Forecast

Advertisements
Track Severe Weather on mobile